Time;durP1;ratioP1;P1;durP2;ratioP2;P2;SDS_P1;SDS_P2;PMS_P1;PMS_P2;Temp;Humidity;BMP_temperature;BMP_pressure;BME280_temperature;BME280_humidity;BME280_pressure;Samples;Min_cycle;Max_cycle;Signal;HPM_P1;HPM_P2
2022/09/22 00:01:26;;;;;;;5.12;4.60;;;;;;;9.46;100.00;100071.68;1592398;88;21172;-74
2022/09/22 00:03:56;;;;;;;5.93;5.30;;;;;;;9.45;100.00;100069.20;1575903;89;21599;-75
2022/09/22 00:06:27;;;;;;;5.87;5.33;;;;;;;9.42;100.00;100069.56;1592314;89;21066;-72
2022/09/22 00:09:02;;;;;;;5.43;4.93;;;;;;;9.39;100.00;100065.45;1571801;89;21340;-73
2022/09/22 00:11:35;;;;;;;5.57;5.07;;;;;;;9.37;100.00;100067.48;1582760;89;21515;-71
2022/09/22 00:14:07;;;;;;;5.67;5.23;;;;;;;9.31;100.00;100065.58;1587078;89;21681;-71
2022/09/22 00:16:40;;;;;;;6.47;5.87;;;;;;;9.21;100.00;100057.05;1594628;88;21200;-73
2022/09/22 00:19:20;;;;;;;5.20;4.80;;;;;;;9.27;100.00;100073.61;1634746;87;21075;-72
2022/09/22 00:21:47;;;;;;;8.87;5.00;;;;;;;9.24;100.00;100069.47;1591127;86;21073;-72
2022/09/22 00:24:14;;;;;;;6.07;5.47;;;;;;;9.22;100.00;100072.83;1607003;87;21083;-76
2022/09/22 00:26:42;;;;;;;5.73;5.23;;;;;;;9.21;100.00;100069.02;1596228;89;21111;-71
2022/09/22 00:29:09;;;;;;;5.65;5.12;;;;;;;9.18;100.00;100073.40;1621305;87;21031;-72
2022/09/22 00:31:39;;;;;;;7.53;5.30;;;;;;;9.16;100.00;100072.25;1636122;86;21021;-74
2022/09/22 00:34:07;;;;;;;5.47;5.00;;;;;;;9.14;100.00;100077.74;1627927;87;21059;-73
2022/09/22 00:36:34;;;;;;;5.50;5.00;;;;;;;9.13;100.00;100075.27;1606086;85;21565;-72
2022/09/22 00:39:01;;;;;;;5.90;5.33;;;;;;;9.11;100.00;100073.30;1650073;85;21208;-71
2022/09/22 00:41:30;;;;;;;;;;;;;;;9.10;100.00;100071.16;1659259;84;21035;-70
2022/09/22 00:44:27;;;;;;;6.20;5.80;;;;;;;9.10;100.00;100075.14;1661027;84;20103;-71
2022/09/22 00:47:19;;;;;;;5.43;5.00;;;;;;;9.04;100.00;100075.89;1667185;85;21078;-72
2022/09/22 00:50:06;;;;;;;5.50;5.10;;;;;;;9.03;100.00;100069.42;1659480;85;21105;-72
2022/09/22 00:53:02;;;;;;;5.15;4.83;;;;;;;9.05;100.00;100078.03;1664137;84;21070;-71
2022/09/22 00:55:54;;;;;;;5.97;5.23;;;;;;;9.06;100.00;100073.87;1668802;84;21083;-72
2022/09/22 00:58:26;;;;;;;6.40;5.80;;;;;;;9.03;100.00;100075.55;1716743;82;21009;-76
2022/09/22 01:00:52;;;;;;;5.23;4.83;;;;;;;9.04;100.00;100078.55;1720146;82;22052;-71
2022/09/22 01:03:21;;;;;;;5.67;5.17;;;;;;;9.05;100.00;100080.18;1721093;83;21067;-72
2022/09/22 01:05:52;;;;;;;5.83;5.43;;;;;;;9.08;100.00;100078.49;1722816;82;20950;-70
2022/09/22 01:08:20;;;;;;;4.90;4.60;;;;;;;9.09;100.00;100076.14;1719540;82;21054;-71
2022/09/22 01:10:47;;;;;;;5.40;5.00;;;;;;;9.11;100.00;100074.63;1721334;82;20986;-72
2022/09/22 01:13:31;;;;;;;6.60;5.83;;;;;;;9.08;100.00;100073.17;1720967;82;21533;-70
2022/09/22 01:16:27;;;;;;;6.23;5.67;;;;;;;9.07;100.00;100076.02;1718399;82;21058;-71
2022/09/22 01:19:13;;;;;;;6.90;5.50;;;;;;;9.05;100.00;100074.05;1719564;82;20978;-70
2022/09/22 01:22:15;;;;;;;7.10;6.50;;;;;;;9.00;100.00;100078.57;1712061;82;21322;-72
2022/09/22 01:24:56;;;;;;;7.37;6.67;;;;;;;8.98;100.00;100078.45;1709338;82;21074;-71
2022/09/22 01:28:17;;;;;;;7.67;7.03;;;;;;;8.95;100.00;100073.82;1709771;82;21007;-71
2022/09/22 01:31:03;;;;;;;8.33;7.63;;;;;;;8.96;100.00;100077.30;1719868;82;20979;-71
2022/09/22 01:33:47;;;;;;;8.20;7.50;;;;;;;8.92;100.00;100069.38;1720627;82;21044;-72
2022/09/22 01:36:25;;;;;;;9.10;8.20;;;;;;;8.90;100.00;100064.23;1709947;82;21042;-71
2022/09/22 01:39:12;;;;;;;7.80;7.20;;;;;;;8.91;100.00;100073.88;1723908;82;21058;-71
2022/09/22 01:41:46;;;;;;;8.27;7.53;;;;;;;8.92;100.00;100069.38;1719936;83;21506;-71
2022/09/22 01:44:24;;;;;;;8.83;8.03;;;;;;;8.92;100.00;100072.03;1679986;84;21161;-75
2022/09/22 01:46:59;;;;;;;8.17;7.47;;;;;;;8.90;100.00;100069.55;1655324;85;21058;-72
2022/09/22 01:49:29;;;;;;;8.10;7.30;;;;;;;8.92;100.00;100068.05;1671713;84;21042;-69
2022/09/22 01:52:01;;;;;;;7.40;6.70;;;;;;;8.92;100.00;100066.72;1661228;84;21025;-71
2022/09/22 01:54:41;;;;;;;7.37;6.67;;;;;;;8.90;100.00;100066.89;1675631;84;21057;-70
2022/09/22 01:57:38;;;;;;;8.70;6.40;;;;;;;8.92;100.00;100066.72;1679622;83;20983;-70
2022/09/22 02:00:08;;;;;;;7.63;6.93;;;;;;;8.93;100.00;100068.38;1648456;85;21014;-71
2022/09/22 02:02:47;;;;;;;9.07;6.40;;;;;;;8.92;100.00;100062.73;1638187;85;20994;-72
2022/09/22 02:05:19;;;;;;;6.37;5.87;;;;;;;8.92;100.00;100068.05;1656415;84;20954;-71
2022/09/22 02:07:50;;;;;;;5.37;4.97;;;;;;;8.95;100.00;100071.16;1677458;85;20978;-71
2022/09/22 02:10:21;;;;;;;6.13;5.63;;;;;;;8.97;100.00;100065.66;1676687;85;21066;-71
2022/09/22 02:12:48;;;;;;;5.87;5.37;;;;;;;8.96;100.00;100064.00;1677353;84;21162;-71
2022/09/22 02:18:12;;;;;;;6.05;5.47;;;;;;;8.97;100.00;100070.98;1677264;84;21113;-71
2022/09/22 02:20:40;;;;;;;5.10;4.60;;;;;;;8.98;100.00;100066.48;1672154;84;21076;-70
2022/09/22 02:23:07;;;;;;;5.35;4.85;;;;;;;8.97;100.00;100072.31;1678512;84;21014;-71
2022/09/22 02:25:35;;;;;;;4.73;4.40;;;;;;;8.97;100.00;100070.98;1682146;84;21004;-71
2022/09/22 02:28:02;;;;;;;5.07;4.60;;;;;;;8.97;100.00;100065.66;1657084;85;21073;-71
2022/09/22 02:30:29;;;;;;;5.33;4.93;;;;;;;8.93;100.00;100063.87;1661430;85;20995;-71
2022/09/22 02:32:59;;;;;;;8.17;4.93;;;;;;;8.95;100.00;100069.02;1686955;84;21005;-72
2022/09/22 02:35:29;;;;;;;5.10;4.73;;;;;;;8.93;100.00;100058.56;1679161;85;21053;-71
2022/09/22 02:38:04;;;;;;;4.93;4.53;;;;;;;8.93;100.00;100061.73;1674847;84;21061;-70
2022/09/22 02:40:47;;;;;;;6.07;5.57;;;;;;;8.91;100.00;100069.89;1673954;85;21046;-71
2022/09/22 02:43:24;;;;;;;5.53;5.10;;;;;;;8.90;100.00;100062.91;1678766;84;21512;-71
2022/09/22 02:46:14;;;;;;;5.75;5.25;;;;;;;8.91;100.00;100063.24;1650963;85;21010;-71
2022/09/22 02:48:50;;;;;;;4.27;3.97;;;;;;;8.90;100.00;100054.94;1655995;85;21007;-71
2022/09/22 02:51:17;;;;;;;4.17;3.92;;;;;;;8.88;100.00;100052.97;1660772;86;21034;-71
2022/09/22 02:53:43;;;;;;;18.93;4.50;;;;;;;8.87;100.00;100059.78;1675133;84;21058;-71
2022/09/22 02:56:10;;;;;;;3.40;3.20;;;;;;;8.87;100.00;100058.46;1674849;84;21011;-72
2022/09/22 02:58:36;;;;;;;5.70;3.92;;;;;;;8.87;100.00;100050.00;1676288;84;21007;-72
2022/09/22 03:01:03;;;;;;;;;;;;;;;8.88;100.00;100050.82;1669327;84;21083;-71
2022/09/22 03:03:29;;;;;;;3.83;3.53;;;;;;;8.86;100.00;100056.31;1687440;84;20097;-71
2022/09/22 03:05:55;;;;;;;3.15;2.90;;;;;;;8.79;100.00;100065.20;1678903;84;21067;-71
2022/09/22 03:08:23;;;;;;;2.90;2.70;;;;;;;8.79;100.00;100066.02;1680021;84;21047;-71
2022/09/22 03:10:49;;;;;;;;;;;;;;;8.80;100.00;100065.03;1713083;82;21059;-72
2022/09/22 03:13:16;;;;;;;4.37;3.97;;;;;;;8.81;100.00;100064.52;1714264;82;20109;-71
2022/09/22 03:15:44;;;;;;;3.77;3.42;;;;;;;8.77;100.00;100066.20;1711635;82;21097;-71
2022/09/22 03:18:10;;;;;;;4.17;3.67;;;;;;;8.76;100.00;100069.88;1714822;82;21620;-72
2022/09/22 03:20:36;;;;;;;;;;;;;;;8.79;100.00;100079.31;1729244;82;21007;-71
2022/09/22 03:23:03;;;;;;;3.63;3.43;;;;;;;8.81;100.00;100074.64;1723918;82;20126;-71
2022/09/22 03:25:30;;;;;;;3.60;3.30;;;;;;;8.80;100.00;100073.48;1677434;85;21715;-73
2022/09/22 03:27:56;;;;;;;2.92;2.77;;;;;;;8.81;100.00;100074.64;1651712;85;21066;-72
2022/09/22 03:30:22;;;;;;;5.45;4.28;;;;;;;8.84;100.00;100076.12;1699373;84;21029;-73
2022/09/22 03:32:48;;;;;;;4.53;4.10;;;;;;;8.83;100.00;100067.81;1714926;82;20986;-72
2022/09/22 03:35:14;;;;;;;3.90;3.62;;;;;;;8.81;100.00;100073.30;1721178;82;21069;-72
2022/09/22 03:37:40;;;;;;;;;;;;;;;8.83;100.00;100071.80;1719866;82;21573;-71
2022/09/22 03:40:07;;;;;;;4.60;4.30;;;;;;;8.85;100.00;100073.77;1718198;83;20153;-72
2022/09/22 03:42:36;;;;;;;5.70;4.90;;;;;;;8.81;100.00;100075.15;1718426;83;21510;-73
2022/09/22 03:45:03;;;;;;;5.33;4.83;;;;;;;8.80;100.00;100082.78;1715460;83;21025;-72
2022/09/22 03:47:30;;;;;;;6.07;5.57;;;;;;;8.80;100.00;100084.97;1720282;83;21126;-71
2022/09/22 03:49:56;;;;;;;5.20;4.80;;;;;;;8.80;100.00;100091.61;1717597;83;21005;-70
2022/09/22 03:52:23;;;;;;;4.97;4.58;;;;;;;8.83;100.00;100087.75;1716086;83;20998;-71
2022/09/22 03:54:51;;;;;;;3.83;3.57;;;;;;;8.84;100.00;100092.06;1716632;83;21089;-71
2022/09/22 03:57:17;;;;;;;6.53;5.27;;;;;;;8.84;100.00;100095.55;1706651;83;20994;-70
2022/09/22 03:59:44;;;;;;;6.42;5.35;;;;;;;8.84;100.00;100100.86;1721679;82;21062;-72
2022/09/22 04:02:10;;;;;;;6.35;5.75;;;;;;;8.85;100.00;100094.52;1720899;82;20994;-70
2022/09/22 04:04:36;;;;;;;5.78;5.37;;;;;;;8.84;100.00;100099.53;1718665;83;20990;-70
2022/09/22 04:07:02;;;;;;;13.15;6.00;;;;;;;8.85;100.00;100097.17;1718283;83;21486;-71
2022/09/22 04:09:28;;;;;;;6.92;5.78;;;;;;;8.88;100.00;100098.16;1717100;82;20986;-73
2022/09/22 04:11:55;;;;;;;8.00;6.72;;;;;;;8.90;100.00;100104.62;1677541;84;21121;-70
2022/09/22 04:14:21;;;;;;;7.85;7.15;;;;;;;8.88;100.00;100096.01;1647212;85;21036;-69
2022/09/22 04:16:48;;;;;;;6.55;5.95;;;;;;;8.88;100.00;100103.47;1719542;81;21006;-72
2022/09/22 04:19:15;;;;;;;8.53;6.83;;;;;;;8.90;100.00;100101.96;1716813;82;21279;-71
2022/09/22 04:21:42;;;;;;;6.47;5.87;;;;;;;8.90;100.00;100096.64;1710235;82;21057;-72
2022/09/22 04:24:09;;;;;;;6.92;6.35;;;;;;;8.92;100.00;100099.94;1721227;82;21544;-71
2022/09/22 04:26:38;;;;;;;6.40;5.87;;;;;;;8.95;100.00;100102.24;1720356;82;21018;-71
2022/09/22 04:29:04;;;;;;;7.17;6.50;;;;;;;8.97;100.00;100105.55;1719053;82;21493;-70
2022/09/22 04:31:31;;;;;;;7.60;6.78;;;;;;;9.00;100.00;100105.67;1711153;83;21534;-71
2022/09/22 04:33:57;;;;;;;;;;;;;;;9.00;100.00;100105.67;1722419;83;21022;-71
2022/09/22 04:36:23;;;;;;;10.10;8.00;;;;;;;8.99;100.00;100096.06;1722842;82;20263;-74
2022/09/22 04:38:49;;;;;;;8.15;7.45;;;;;;;8.94;100.00;100100.58;1721254;82;21439;-70
2022/09/22 04:41:15;;;;;;;10.50;7.92;;;;;;;8.95;100.00;100101.73;1716216;82;21010;-78
2022/09/22 04:43:42;;;;;;;8.23;7.33;;;;;;;8.98;100.00;100101.05;1715870;82;21505;-78
2022/09/22 04:46:08;;;;;;;8.48;7.67;;;;;;;8.99;100.00;100101.37;1714346;81;21017;-78
2022/09/22 04:48:34;;;;;;;7.47;6.78;;;;;;;9.01;100.00;100108.15;1718434;82;21626;-77
2022/09/22 04:51:00;;;;;;;8.25;7.58;;;;;;;9.02;100.00;100103.64;1717029;82;22327;-78
2022/09/22 04:53:26;;;;;;;9.40;7.78;;;;;;;9.06;100.00;100111.09;1720496;83;21466;-72
2022/09/22 04:55:52;;;;;;;9.03;6.85;;;;;;;9.07;100.00;100099.94;1721327;82;20995;-70
2022/09/22 04:58:18;;;;;;;8.83;7.92;;;;;;;9.06;100.00;100107.58;1718650;82;21556;-72
2022/09/22 05:00:46;;;;;;;8.77;7.87;;;;;;;9.04;100.00;100108.27;1719989;82;21030;-74
2022/09/22 05:03:13;;;;;;;8.83;7.80;;;;;;;9.01;100.00;100106.82;1717086;82;21489;-74
2022/09/22 05:05:40;;;;;;;9.57;8.53;;;;;;;9.03;100.00;100103.47;1716168;82;21562;-74
2022/09/22 05:08:09;;;;;;;9.10;7.87;;;;;;;9.05;100.00;100115.26;1719737;82;20998;-75
2022/09/22 05:10:35;;;;;;;8.70;7.80;;;;;;;9.05;100.00;100120.06;1711659;82;21089;-75
2022/09/22 05:13:03;;;;;;;8.27;7.53;;;;;;;9.06;100.00;100121.72;1717368;83;21528;-74
2022/09/22 05:15:31;;;;;;;8.90;8.10;;;;;;;9.07;100.00;100125.20;1715630;83;20990;-78
2022/09/22 05:17:58;;;;;;;11.07;9.97;;;;;;;9.09;100.00;100122.67;1712982;82;21034;-80
2022/09/22 05:20:25;;;;;;;9.30;8.50;;;;;;;9.13;100.00;100131.92;1714175;82;21161;-79
2022/09/22 05:22:53;;;;;;;8.90;8.17;;;;;;;9.13;100.00;100129.77;1718541;82;21074;-71
2022/09/22 05:25:19;;;;;;;9.40;8.47;;;;;;;9.10;100.00;100130.16;1713443;82;21068;-70
2022/09/22 05:27:50;;;;;;;9.47;8.57;;;;;;;9.08;100.00;100134.33;1715245;82;21034;-71
2022/09/22 05:30:18;;;;;;;8.63;7.80;;;;;;;9.07;100.00;100137.16;1660100;85;21054;-71
2022/09/22 05:32:47;;;;;;;9.10;8.10;;;;;;;9.05;100.00;100140.00;1659259;85;21124;-72
2022/09/22 05:35:17;;;;;;;9.87;8.80;;;;;;;9.05;100.00;100132.02;1656491;86;21022;-72
2022/09/22 05:37:45;;;;;;;9.13;7.50;;;;;;;9.10;100.00;100138.14;1660214;86;21098;-74
2022/09/22 05:40:13;;;;;;;8.50;7.70;;;;;;;9.11;100.00;100134.45;1674844;84;21283;-73
2022/09/22 05:42:47;;;;;;;8.83;8.00;;;;;;;9.11;100.00;100139.27;1646923;86;21553;-74
2022/09/22 05:45:14;;;;;;;9.20;8.40;;;;;;;9.17;100.00;100135.04;1675128;84;21201;-74
2022/09/22 05:47:41;;;;;;;10.67;9.67;;;;;;;9.19;100.00;100134.86;1646459;85;21001;-73
2022/09/22 05:50:11;;;;;;;12.80;11.50;;;;;;;9.19;100.00;100134.35;1674326;84;21093;-75
2022/09/22 05:52:38;;;;;;;10.40;9.13;;;;;;;9.21;100.00;100133.69;1675268;84;21287;-75
2022/09/22 05:55:07;;;;;;;13.43;11.43;;;;;;;9.22;100.00;100138.50;1677624;84;21105;-76
2022/09/22 05:57:34;;;;;;;15.67;14.07;;;;;;;9.26;100.00;100138.44;1675904;84;21006;-74
2022/09/22 06:00:00;;;;;;;8.78;8.08;;;;;;;9.28;100.00;100149.20;1650465;85;21170;-75
2022/09/22 06:02:26;;;;;;;;;;;;;;;9.30;100.00;100140.53;1724965;82;20997;-76
2022/09/22 06:04:53;;;;;;;8.90;8.00;;;;;;;9.30;100.00;100143.19;1717767;82;20152;-74
2022/09/22 06:07:21;;;;;;;9.47;8.57;;;;;;;9.27;100.00;100137.45;1717484;82;21160;-76
2022/09/22 06:09:50;;;;;;;7.43;6.83;;;;;;;9.33;100.00;100141.50;1720650;82;21533;-78
2022/09/22 06:12:17;;;;;;;11.07;7.33;;;;;;;9.39;100.00;100145.77;1709046;82;21038;-76
2022/09/22 06:14:44;;;;;;;10.07;9.13;;;;;;;9.42;100.00;100144.05;1718107;82;21089;-78
2022/09/22 06:17:11;;;;;;;9.60;8.78;;;;;;;9.42;100.00;100143.57;1712265;82;21056;-75
2022/09/22 06:19:39;;;;;;;8.27;7.57;;;;;;;9.42;100.00;100143.57;1660074;85;21114;-76
2022/09/22 06:22:07;;;;;;;7.53;6.67;;;;;;;9.41;100.00;100145.08;1663107;84;21029;-76
2022/09/22 06:24:33;;;;;;;8.10;7.40;;;;;;;9.39;100.00;100149.25;1719871;82;21061;-74
2022/09/22 06:27:00;;;;;;;6.83;6.17;;;;;;;9.39;100.00;100150.58;1723225;82;21062;-79
2022/09/22 06:29:27;;;;;;;7.45;6.70;;;;;;;9.39;100.00;100143.93;1718372;82;21053;-75
2022/09/22 06:31:53;;;;;;;7.03;6.43;;;;;;;9.45;100.00;100143.18;1721065;82;21120;-75
2022/09/22 06:34:20;;;;;;;8.27;7.50;;;;;;;9.49;100.00;100145.81;1721009;82;20971;-76
2022/09/22 06:36:46;;;;;;;7.42;6.72;;;;;;;9.53;100.00;100145.75;1718952;82;21013;-74
2022/09/22 06:39:12;;;;;;;9.08;7.58;;;;;;;9.55;100.00;100146.39;1679847;84;21119;-76
2022/09/22 06:41:38;;;;;;;8.55;7.75;;;;;;;9.58;100.00;100141.19;1656774;85;21013;-75
2022/09/22 06:44:05;;;;;;;9.13;8.23;;;;;;;9.63;100.00;100147.30;1683888;84;21029;-85
2022/09/22 06:46:33;;;;;;;8.57;7.77;;;;;;;9.64;100.00;100147.60;1690381;84;21084;-74
2022/09/22 06:48:59;;;;;;;9.33;8.53;;;;;;;9.65;100.00;100146.09;1719806;82;21014;-82
2022/09/22 06:51:29;;;;;;;9.28;8.35;;;;;;;9.71;100.00;100147.18;1718866;82;22088;-73
2022/09/22 06:53:55;;;;;;;9.13;8.27;;;;;;;9.72;100.00;100148.84;1714988;82;21744;-75
2022/09/22 06:56:24;;;;;;;10.58;9.63;;;;;;;9.73;100.00;100153.95;1713577;82;21022;-72
2022/09/22 06:58:55;;;;;;;10.27;9.27;;;;;;;9.73;100.00;100158.47;1690238;84;21037;-71
2022/09/22 07:01:23;;;;;;;8.27;7.50;;;;;;;9.74;100.00;100158.80;1691177;83;21033;-74
2022/09/22 07:03:51;;;;;;;9.07;8.27;;;;;;;9.77;100.00;100157.07;1678283;84;21059;-75
2022/09/22 07:06:17;;;;;;;9.27;8.47;;;;;;;9.81;100.00;100158.34;1643328;85;20995;-74
2022/09/22 07:08:46;;;;;;;9.45;8.50;;;;;;;9.83;100.00;100161.67;1619036;87;21024;-74
2022/09/22 07:11:22;;;;;;;8.70;7.90;;;;;;;9.87;100.00;100156.77;1610931;87;21068;-73
2022/09/22 07:13:53;;;;;;;9.80;9.00;;;;;;;9.90;100.00;100155.07;1659613;84;21657;-74
2022/09/22 07:16:22;;;;;;;9.57;8.33;;;;;;;9.94;100.00;100159.84;1673586;84;21113;-73
2022/09/22 07:18:56;;;;;;;11.80;8.23;;;;;;;10.02;100.00;100164.70;1599436;87;21117;-75
2022/09/22 07:21:28;;;;;;;9.23;8.37;;;;;;;10.11;100.00;100160.43;1642226;86;21029;-74
2022/09/22 07:23:56;;;;;;;7.03;6.43;;;;;;;10.18;100.00;100156.48;1640619;86;21047;-79
2022/09/22 07:26:31;;;;;;;9.03;6.80;;;;;;;10.15;100.00;100143.53;1678251;84;21417;-72
2022/09/22 07:28:59;;;;;;;7.47;6.87;;;;;;;9.94;100.00;100102.60;1620186;87;21105;-80
2022/09/22 07:31:28;;;;;;;7.30;6.80;;;;;;;10.37;100.00;100162.23;1695320;84;21049;-73
2022/09/22 07:33:59;;;;;;;7.43;6.73;;;;;;;10.50;99.99;100161.82;1685360;84;21024;-73
2022/09/22 07:36:27;;;;;;;8.23;7.60;;;;;;;10.60;99.70;100164.67;1679335;84;21008;-76
2022/09/22 07:38:57;;;;;;;8.17;7.43;;;;;;;10.73;98.96;100170.11;1680807;84;21116;-71
2022/09/22 07:41:29;;;;;;;7.25;6.67;;;;;;;10.83;98.27;100172.43;1679162;84;20997;-71
2022/09/22 07:45:11;;;;;;;6.58;6.08;;;;;;;10.89;96.65;100165.83;1678125;84;21034;-73
2022/09/22 07:46:26;;;;;;;7.00;6.05;;;;;;;10.97;96.97;100168.84;1640619;85;21048;-71
2022/09/22 07:48:53;;;;;;;5.78;5.33;;;;;;;11.07;95.89;100163.97;1676914;82;21001;-72
2022/09/22 07:51:22;;;;;;;5.08;4.78;;;;;;;11.16;94.27;100154.50;1650329;85;21644;-72
2022/09/22 07:54:06;;;;;;;5.33;4.92;;;;;;;11.23;94.29;100159.37;1678450;84;21317;-71
2022/09/22 07:56:26;;;;;;;5.67;5.25;;;;;;;11.24;92.96;100150.33;1675858;83;21025;-77
2022/09/22 07:58:52;;;;;;;5.55;5.15;;;;;;;11.28;93.35;100152.91;1695694;83;21480;-77
2022/09/22 08:01:22;;;;;;;5.97;5.25;;;;;;;11.35;93.51;100152.96;1685456;83;21097;-78
2022/09/22 08:03:51;;;;;;;5.58;5.17;;;;;;;11.43;93.17;100151.45;1677642;84;20962;-78
2022/09/22 08:06:19;;;;;;;18.77;16.82;;;;;;;11.48;92.12;100144.48;1682642;83;20952;-79
2022/09/22 08:08:52;;;;;;;5.55;5.15;;;;;;;11.49;91.82;100146.16;1668746;83;21364;-75
2022/09/22 08:11:22;;;;;;;5.03;4.62;;;;;;;11.49;91.48;100148.82;1717602;82;21498;-75
2022/09/22 08:14:02;;;;;;;5.30;4.95;;;;;;;11.52;91.04;100147.59;1695682;83;21081;-79
2022/09/22 08:16:33;;;;;;;5.22;4.83;;;;;;;11.56;90.73;100149.35;1686952;85;21061;-73
2022/09/22 08:19:09;;;;;;;5.90;5.35;;;;;;;11.59;90.31;100142.30;1683974;85;21050;-75
2022/09/22 08:21:34;;;;;;;5.42;5.08;;;;;;;11.64;90.25;100145.16;1680374;84;21033;-73
2022/09/22 08:24:03;;;;;;;4.72;4.40;;;;;;;11.65;89.56;100149.49;1677103;84;21105;-80
2022/09/22 08:26:30;;;;;;;3.10;2.85;;;;;;;11.66;89.69;100149.30;1606798;87;21602;-84
2022/09/22 08:28:57;;;;;;;6.90;4.40;;;;;;;11.73;89.13;100149.30;1670466;83;20990;-78
2022/09/22 08:31:26;;;;;;;3.72;3.52;;;;;;;11.80;88.37;100148.82;1660609;85;21109;-74
2022/09/22 08:33:54;;;;;;;4.03;3.83;;;;;;;11.84;87.26;100146.58;1606735;87;21085;-76
2022/09/22 08:36:23;;;;;;;2.87;2.77;;;;;;;11.88;86.88;100144.66;1680293;82;21042;-76
2022/09/22 08:38:52;;;;;;;3.67;3.47;;;;;;;11.93;86.36;100145.92;1713482;82;21065;-75
2022/09/22 08:41:46;;;;;;;3.27;3.05;;;;;;;11.99;86.44;100145.92;1710116;83;21094;-77
2022/09/22 08:44:23;;;;;;;4.00;3.70;;;;;;;12.06;86.42;100148.62;1701684;82;21525;-75
2022/09/22 08:46:52;;;;;;;4.90;4.50;;;;;;;12.16;85.96;100149.55;1678578;83;21041;-75
2022/09/22 08:52:49;;;;;;;3.05;2.75;;;;;;;12.19;85.97;100151.31;1672189;83;21102;-76
2022/09/22 08:55:22;;;;;;;3.42;2.62;;;;;;;12.16;85.09;100150.89;1692115;83;21133;-76
2022/09/22 08:57:58;;;;;;;2.85;2.65;;;;;;;12.16;84.47;100153.56;1704177;83;21021;-77
2022/09/22 09:00:35;;;;;;;1.98;1.77;;;;;;;12.19;84.45;100148.64;1692694;83;21040;-76
2022/09/22 09:03:05;;;;;;;;;;;;;;;12.25;83.58;100149.15;1690522;83;21049;-78
2022/09/22 09:06:10;;;;;;;2.67;2.55;;;;;;;12.27;84.23;100151.10;1690677;83;20104;-76
2022/09/22 09:08:44;;;;;;;6.37;2.35;;;;;;;12.35;84.29;100154.61;1722518;82;20994;-75
2022/09/22 09:11:31;;;;;;;2.98;2.77;;;;;;;12.43;83.38;100153.06;1720492;82;21003;-74
2022/09/22 09:14:43;;;;;;;4.92;4.25;;;;;;;12.52;82.75;100149.69;1690372;83;21604;-74
2022/09/22 09:17:32;;;;;;;2.75;2.40;;;;;;;12.59;82.16;100150.52;1688935;84;21115;-78
2022/09/22 09:20:10;;;;;;;2.67;2.47;;;;;;;12.59;80.40;100145.98;1685220;84;21062;-77
2022/09/22 09:22:40;;;;;;;2.90;2.50;;;;;;;12.61;80.48;100143.92;1679185;84;21065;-74
2022/09/22 09:25:36;;;;;;;2.10;2.00;;;;;;;12.55;79.70;100144.75;1682786;82;21030;-77
2022/09/22 09:28:08;;;;;;;2.55;1.65;;;;;;;12.48;80.41;100146.59;1680421;82;21046;-77
2022/09/22 09:30:50;;;;;;;1.90;1.80;;;;;;;12.42;79.74;100148.77;1689740;84;21063;-77
2022/09/22 09:33:43;;;;;;;2.27;2.08;;;;;;;12.38;80.28;100143.52;1681764;82;21034;-76
2022/09/22 09:36:14;;;;;;;1.98;1.87;;;;;;;12.38;79.68;100143.00;1690816;83;21097;-77
2022/09/22 09:38:47;;;;;;;1.80;1.70;;;;;;;12.33;80.35;100143.30;1717791;82;21045;-76
2022/09/22 09:41:31;;;;;;;1.87;1.77;;;;;;;12.31;81.27;100145.36;1690959;83;21069;-79
2022/09/22 09:43:59;;;;;;;1.95;1.77;;;;;;;12.27;81.07;100146.28;1689804;84;21008;-76
2022/09/22 09:46:51;;;;;;;2.08;1.75;;;;;;;12.24;81.10;100150.69;1687451;83;21584;-76
2022/09/22 09:49:20;;;;;;;1.95;1.85;;;;;;;12.21;81.85;100153.78;1629751;86;21087;-75
2022/09/22 09:54:04;;;;;;;1.55;1.45;;;;;;;12.21;81.92;100151.92;1831169;76;22751;-76
2022/09/22 09:56:30;;;;;;;2.37;2.27;;;;;;;12.16;81.83;100152.23;1780198;79;21043;-76
2022/09/22 10:01:53;;;;;;;3.50;1.17;;;;;;;12.19;81.45;100152.64;1743551;80;21695;-76
2022/09/22 10:04:30;;;;;;;1.40;1.30;;;;;;;12.12;80.88;100157.15;1767456;80;21512;-74
2022/09/22 10:07:39;;;;;;;0.80;0.80;;;;;;;12.05;81.29;100160.31;1826230;77;21056;-76
2022/09/22 10:10:25;;;;;;;1.22;1.20;;;;;;;11.99;81.98;100159.27;1786048;77;21745;-79
2022/09/22 10:12:52;;;;;;;6.20;5.58;;;;;;;11.93;82.50;100164.09;1778550;79;21524;-80
2022/09/22 10:15:25;;;;;;;16.10;10.88;;;;;;;11.88;84.37;100159.34;1794909;78;20992;-77
2022/09/22 10:17:52;;;;;;;7.17;6.40;;;;;;;11.86;83.98;100160.02;1698657;82;20990;-76
2022/09/22 10:20:32;;;;;;;3.10;2.80;;;;;;;11.84;84.60;100155.40;1715417;81;21044;-76
2022/09/22 10:23:22;;;;;;;5.70;3.00;;;;;;;11.83;83.58;100159.63;1683613;84;21360;-75
2022/09/22 10:25:49;;;;;;;2.70;1.55;;;;;;;11.81;84.19;100162.98;1737072;80;21052;-76
2022/09/22 10:28:19;;;;;;;1.70;1.60;;;;;;;11.80;84.69;100158.16;1755315;80;21486;-75
2022/09/22 10:31:03;;;;;;;1.07;1.07;;;;;;;11.79;85.16;100161.03;1721711;82;21062;-74
2022/09/22 10:33:32;;;;;;;1.45;1.42;;;;;;;11.75;86.35;100169.14;1744512;80;21065;-73
2022/09/22 10:36:10;;;;;;;2.30;2.10;;;;;;;11.68;86.96;100180.63;1758127;80;22207;-76
2022/09/22 10:38:42;;;;;;;3.45;3.15;;;;;;;11.62;89.41;100172.08;1741619;80;21559;-76
2022/09/22 10:41:19;;;;;;;5.58;3.42;;;;;;;11.53;90.54;100167.94;1769053;80;21545;-78
2022/09/22 10:44:03;;;;;;;1.65;1.47;;;;;;;11.48;91.16;100160.51;1767032;80;21023;-76
2022/09/22 10:47:05;;;;;;;1.00;1.00;;;;;;;11.45;92.20;100170.75;1776219;80;21098;-75
2022/09/22 10:49:52;;;;;;;1.22;1.12;;;;;;;11.41;91.37;100165.50;1767929;80;21101;-74
2022/09/22 10:52:27;;;;;;;1.32;1.32;;;;;;;11.46;92.22;100167.08;1732484;80;21607;-74
2022/09/22 10:55:05;;;;;;;1.60;1.50;;;;;;;11.54;92.35;100174.09;1715500;81;21482;-75
2022/09/22 10:57:55;;;;;;;1.90;1.80;;;;;;;11.55;90.92;100166.41;1712868;81;21021;-76
2022/09/22 11:00:24;;;;;;;2.77;2.15;;;;;;;11.50;90.79;100168.32;1729788;81;21197;-77
2022/09/22 11:03:24;;;;;;;1.90;1.80;;;;;;;11.44;91.49;100163.27;1708922;83;21018;-76
2022/09/22 11:12:34;;;;;;;1.60;1.40;;;;;;;11.45;92.53;100158.74;1752034;81;21744;-78
2022/09/22 11:15:42;;;;;;;2.58;2.00;;;;;;;11.41;91.57;100155.64;1781243;80;21029;-84
2022/09/22 11:18:40;;;;;;;2.42;1.40;;;;;;;11.38;92.29;100153.91;1746543;80;21077;-77
2022/09/22 11:21:17;;;;;;;1.90;1.70;;;;;;;11.32;91.01;100150.19;1768921;80;21012;-76
2022/09/22 11:24:22;;;;;;;4.10;3.83;;;;;;;11.29;92.08;100154.58;1759277;80;21046;-75
2022/09/22 11:26:56;;;;;;;3.50;3.30;;;;;;;11.37;92.81;100151.73;1774245;80;21457;-75
2022/09/22 11:29:44;;;;;;;3.95;3.65;;;;;;;11.47;92.81;100151.36;1774825;80;21141;-73
2022/09/22 11:32:30;;;;;;;5.58;2.72;;;;;;;11.55;91.94;100150.39;1752460;80;21612;-73
2022/09/22 11:35:27;;;;;;;2.22;2.05;;;;;;;11.63;91.73;100146.20;1733586;79;21066;-76
2022/09/22 11:38:08;;;;;;;2.10;2.00;;;;;;;11.69;91.12;100148.87;1756092;79;21057;-73
2022/09/22 11:40:44;;;;;;;1.65;1.60;;;;;;;11.77;90.17;100146.57;1749064;80;21436;-74
2022/09/22 11:43:34;;;;;;;3.30;1.90;;;;;;;11.84;89.78;100148.72;1750405;80;21546;-76
2022/09/22 11:46:11;;;;;;;4.65;2.65;;;;;;;11.91;88.89;100143.97;1716198;81;21007;-73
2022/09/22 11:49:15;;;;;;;;;;;;;;;11.94;88.89;100136.87;1725724;82;21592;-75
2022/09/22 11:51:55;;;;;;;1.90;1.72;;;;;;;12.00;88.19;100134.74;1720299;82;20170;-72
2022/09/22 11:55:01;;;;;;;2.10;2.00;;;;;;;11.96;88.20;100136.99;1725680;81;21119;-73
2022/09/22 11:57:32;;;;;;;3.33;2.17;;;;;;;11.98;88.47;100135.43;1712492;82;21018;-79
2022/09/22 12:00:18;;;;;;;2.02;1.82;;;;;;;11.97;87.59;100133.80;1695820;82;21064;-74
2022/09/22 12:03:22;;;;;;;2.60;2.50;;;;;;;11.94;87.01;100140.88;1746167;81;21019;-75
2022/09/22 12:05:57;;;;;;;1.52;1.42;;;;;;;11.91;87.38;100140.77;1753999;80;21537;-74
2022/09/22 12:08:54;;;;;;;8.00;2.30;;;;;;;11.91;87.75;100139.95;1755579;80;21762;-74
2022/09/22 12:11:23;;;;;;;2.10;2.00;;;;;;;11.86;86.70;100134.66;1747099;80;21029;-74
2022/09/22 12:13:52;;;;;;;3.45;2.40;;;;;;;11.84;87.06;100138.04;1724400;83;21536;-74